sensor_id;sensor_type;location;lat;lon;timestamp;P1;durP1;ratioP1;P2;durP2;ratioP2
6023;SDS011;3040;42.654;23.296;2024-03-17T00:01:09;23.00;;;17.83;;
6023;SDS011;3040;42.654;23.296;2024-03-17T00:03:35;27.33;;;20.20;;
6023;SDS011;3040;42.654;23.296;2024-03-17T00:06:03;31.13;;;19.57;;
6023;SDS011;3040;42.654;23.296;2024-03-17T00:08:29;27.43;;;19.23;;
6023;SDS011;3040;42.654;23.296;2024-03-17T00:10:56;27.10;;;19.13;;
6023;SDS011;3040;42.654;23.296;2024-03-17T00:13:22;20.87;;;18.07;;
6023;SDS011;3040;42.654;23.296;2024-03-17T00:15:49;22.00;;;18.60;;
6023;SDS011;3040;42.654;23.296;2024-03-17T00:18:15;23.03;;;17.37;;
6023;SDS011;3040;42.654;23.296;2024-03-17T00:20:43;20.47;;;18.27;;
6023;SDS011;3040;42.654;23.296;2024-03-17T00:23:10;26.63;;;18.87;;
6023;SDS011;3040;42.654;23.296;2024-03-17T00:25:37;20.33;;;18.00;;
6023;SDS011;3040;42.654;23.296;2024-03-17T00:28:03;22.90;;;18.77;;
6023;SDS011;3040;42.654;23.296;2024-03-17T00:30:30;22.63;;;17.80;;
6023;SDS011;3040;42.654;23.296;2024-03-17T00:32:56;22.27;;;19.40;;
6023;SDS011;3040;42.654;23.296;2024-03-17T00:35:24;26.17;;;19.57;;
6023;SDS011;3040;42.654;23.296;2024-03-17T00:37:51;21.20;;;19.10;;
6023;SDS011;3040;42.654;23.296;2024-03-17T00:40:20;27.33;;;19.63;;
6023;SDS011;3040;42.654;23.296;2024-03-17T00:42:47;21.73;;;16.97;;
6023;SDS011;3040;42.654;23.296;2024-03-17T00:45:12;23.73;;;19.00;;
6023;SDS011;3040;42.654;23.296;2024-03-17T00:47:39;24.10;;;18.37;;
6023;SDS011;3040;42.654;23.296;2024-03-17T00:50:05;21.10;;;18.10;;
6023;SDS011;3040;42.654;23.296;2024-03-17T00:52:33;22.07;;;18.60;;
6023;SDS011;3040;42.654;23.296;2024-03-17T00:54:59;23.33;;;16.93;;
6023;SDS011;3040;42.654;23.296;2024-03-17T00:57:27;22.27;;;18.80;;
6023;SDS011;3040;42.654;23.296;2024-03-17T00:59:53;25.57;;;21.17;;
6023;SDS011;3040;42.654;23.296;2024-03-17T01:02:20;25.73;;;22.70;;
6023;SDS011;3040;42.654;23.296;2024-03-17T01:04:46;30.77;;;21.30;;
6023;SDS011;3040;42.654;23.296;2024-03-17T01:07:13;25.50;;;21.07;;
6023;SDS011;3040;42.654;23.296;2024-03-17T01:09:39;38.30;;;21.23;;
6023;SDS011;3040;42.654;23.296;2024-03-17T01:12:06;26.90;;;21.50;;
6023;SDS011;3040;42.654;23.296;2024-03-17T01:14:33;29.33;;;20.37;;
6023;SDS011;3040;42.654;23.296;2024-03-17T01:17:00;25.93;;;21.20;;
6023;SDS011;3040;42.654;23.296;2024-03-17T01:19:26;26.40;;;19.90;;
6023;SDS011;3040;42.654;23.296;2024-03-17T01:21:53;22.60;;;19.67;;
6023;SDS011;3040;42.654;23.296;2024-03-17T01:24:18;25.83;;;19.07;;
6023;SDS011;3040;42.654;23.296;2024-03-17T01:26:45;21.07;;;18.80;;
6023;SDS011;3040;42.654;23.296;2024-03-17T01:29:11;23.73;;;19.17;;
6023;SDS011;3040;42.654;23.296;2024-03-17T01:31:40;25.33;;;20.00;;
6023;SDS011;3040;42.654;23.296;2024-03-17T01:34:05;22.63;;;19.17;;
6023;SDS011;3040;42.654;23.296;2024-03-17T01:36:32;25.67;;;20.63;;
6023;SDS011;3040;42.654;23.296;2024-03-17T01:38:58;27.10;;;20.27;;
6023;SDS011;3040;42.654;23.296;2024-03-17T01:41:27;26.03;;;20.10;;
6023;SDS011;3040;42.654;23.296;2024-03-17T01:43:53;24.90;;;20.20;;
6023;SDS011;3040;42.654;23.296;2024-03-17T01:46:19;28.97;;;20.00;;
6023;SDS011;3040;42.654;23.296;2024-03-17T01:48:47;25.57;;;19.17;;
6023;SDS011;3040;42.654;23.296;2024-03-17T01:51:14;26.20;;;20.33;;
6023;SDS011;3040;42.654;23.296;2024-03-17T01:53:40;24.60;;;18.90;;
6023;SDS011;3040;42.654;23.296;2024-03-17T01:56:09;23.37;;;18.73;;
6023;SDS011;3040;42.654;23.296;2024-03-17T01:58:36;24.83;;;18.83;;
6023;SDS011;3040;42.654;23.296;2024-03-17T02:01:03;20.33;;;18.23;;
6023;SDS011;3040;42.654;23.296;2024-03-17T02:03:29;22.93;;;18.73;;
6023;SDS011;3040;42.654;23.296;2024-03-17T02:05:58;25.03;;;19.00;;
6023;SDS011;3040;42.654;23.296;2024-03-17T02:08:24;22.30;;;18.10;;
6023;SDS011;3040;42.654;23.296;2024-03-17T02:10:52;24.30;;;17.13;;
6023;SDS011;3040;42.654;23.296;2024-03-17T02:13:18;20.90;;;17.93;;
6023;SDS011;3040;42.654;23.296;2024-03-17T02:15:46;26.37;;;20.07;;
6023;SDS011;3040;42.654;23.296;2024-03-17T02:18:11;22.43;;;20.07;;
6023;SDS011;3040;42.654;23.296;2024-03-17T02:20:38;22.07;;;19.10;;
6023;SDS011;3040;42.654;23.296;2024-03-17T02:23:26;25.20;;;19.43;;
6023;SDS011;3040;42.654;23.296;2024-03-17T02:25:53;25.60;;;18.03;;
6023;SDS011;3040;42.654;23.296;2024-03-17T02:28:19;23.67;;;17.87;;
6023;SDS011;3040;42.654;23.296;2024-03-17T02:30:46;20.17;;;18.00;;
6023;SDS011;3040;42.654;23.296;2024-03-17T02:33:12;23.10;;;19.17;;
6023;SDS011;3040;42.654;23.296;2024-03-17T02:35:38;22.57;;;19.30;;
6023;SDS011;3040;42.654;23.296;2024-03-17T02:38:04;21.80;;;18.00;;
6023;SDS011;3040;42.654;23.296;2024-03-17T02:40:34;21.00;;;18.17;;
6023;SDS011;3040;42.654;23.296;2024-03-17T02:42:59;21.43;;;18.27;;
6023;SDS011;3040;42.654;23.296;2024-03-17T02:45:26;24.37;;;19.27;;
6023;SDS011;3040;42.654;23.296;2024-03-17T02:47:53;25.67;;;19.00;;
6023;SDS011;3040;42.654;23.296;2024-03-17T02:50:20;25.93;;;19.73;;
6023;SDS011;3040;42.654;23.296;2024-03-17T02:52:46;23.67;;;19.33;;
6023;SDS011;3040;42.654;23.296;2024-03-17T02:55:13;21.90;;;19.00;;
6023;SDS011;3040;42.654;23.296;2024-03-17T02:57:43;23.80;;;19.27;;
6023;SDS011;3040;42.654;23.296;2024-03-17T03:00:11;24.27;;;19.63;;
6023;SDS011;3040;42.654;23.296;2024-03-17T03:02:38;23.50;;;19.43;;
6023;SDS011;3040;42.654;23.296;2024-03-17T03:05:06;20.17;;;16.60;;
6023;SDS011;3040;42.654;23.296;2024-03-17T03:07:33;20.63;;;18.43;;
6023;SDS011;3040;42.654;23.296;2024-03-17T03:09:59;21.17;;;17.63;;
6023;SDS011;3040;42.654;23.296;2024-03-17T03:12:26;22.93;;;16.93;;
6023;SDS011;3040;42.654;23.296;2024-03-17T03:14:54;23.57;;;18.73;;
6023;SDS011;3040;42.654;23.296;2024-03-17T03:17:21;33.57;;;21.77;;
6023;SDS011;3040;42.654;23.296;2024-03-17T03:19:49;25.47;;;17.80;;
6023;SDS011;3040;42.654;23.296;2024-03-17T03:22:15;19.67;;;17.57;;
6023;SDS011;3040;42.654;23.296;2024-03-17T03:24:42;21.83;;;18.13;;
6023;SDS011;3040;42.654;23.296;2024-03-17T03:27:09;23.53;;;18.90;;
6023;SDS011;3040;42.654;23.296;2024-03-17T03:29:36;20.27;;;18.10;;
6023;SDS011;3040;42.654;23.296;2024-03-17T03:32:04;21.67;;;17.83;;
6023;SDS011;3040;42.654;23.296;2024-03-17T03:34:32;21.23;;;17.97;;
6023;SDS011;3040;42.654;23.296;2024-03-17T03:36:59;22.33;;;18.03;;
6023;SDS011;3040;42.654;23.296;2024-03-17T03:39:26;19.50;;;16.67;;
6023;SDS011;3040;42.654;23.296;2024-03-17T03:41:57;19.43;;;15.20;;
6023;SDS011;3040;42.654;23.296;2024-03-17T03:44:23;19.33;;;15.87;;
6023;SDS011;3040;42.654;23.296;2024-03-17T03:46:50;24.30;;;17.33;;
6023;SDS011;3040;42.654;23.296;2024-03-17T03:49:19;23.33;;;18.23;;
6023;SDS011;3040;42.654;23.296;2024-03-17T03:51:46;22.80;;;17.87;;
6023;SDS011;3040;42.654;23.296;2024-03-17T03:54:13;22.60;;;18.67;;
6023;SDS011;3040;42.654;23.296;2024-03-17T03:56:39;25.13;;;18.63;;
6023;SDS011;3040;42.654;23.296;2024-03-17T03:59:06;21.53;;;17.93;;
6023;SDS011;3040;42.654;23.296;2024-03-17T04:01:33;26.60;;;17.43;;
6023;SDS011;3040;42.654;23.296;2024-03-17T04:04:00;21.63;;;17.47;;
6023;SDS011;3040;42.654;23.296;2024-03-17T04:06:29;22.90;;;18.47;;
6023;SDS011;3040;42.654;23.296;2024-03-17T04:08:56;25.43;;;17.67;;
6023;SDS011;3040;42.654;23.296;2024-03-17T04:11:23;22.83;;;17.37;;
6023;SDS011;3040;42.654;23.296;2024-03-17T04:13:51;22.97;;;16.73;;
6023;SDS011;3040;42.654;23.296;2024-03-17T04:16:17;19.13;;;16.30;;
6023;SDS011;3040;42.654;23.296;2024-03-17T04:18:44;18.73;;;16.73;;
6023;SDS011;3040;42.654;23.296;2024-03-17T04:21:11;20.43;;;16.70;;
6023;SDS011;3040;42.654;23.296;2024-03-17T04:23:39;26.07;;;18.13;;
6023;SDS011;3040;42.654;23.296;2024-03-17T04:26:06;21.07;;;17.37;;
6023;SDS011;3040;42.654;23.296;2024-03-17T04:28:34;17.33;;;15.40;;
6023;SDS011;3040;42.654;23.296;2024-03-17T04:31:04;21.07;;;17.17;;
6023;SDS011;3040;42.654;23.296;2024-03-17T04:33:32;22.97;;;16.80;;
6023;SDS011;3040;42.654;23.296;2024-03-17T04:35:59;24.93;;;17.37;;
6023;SDS011;3040;42.654;23.296;2024-03-17T04:38:27;26.73;;;17.40;;
6023;SDS011;3040;42.654;23.296;2024-03-17T04:40:55;20.20;;;16.83;;
6023;SDS011;3040;42.654;23.296;2024-03-17T04:43:29;21.90;;;17.10;;
6023;SDS011;3040;42.654;23.296;2024-03-17T04:46:00;21.97;;;17.47;;
6023;SDS011;3040;42.654;23.296;2024-03-17T04:48:29;27.70;;;17.60;;
6023;SDS011;3040;42.654;23.296;2024-03-17T04:50:56;20.93;;;17.43;;
6023;SDS011;3040;42.654;23.296;2024-03-17T04:53:23;26.50;;;18.27;;
6023;SDS011;3040;42.654;23.296;2024-03-17T04:55:59;20.83;;;16.70;;
6023;SDS011;3040;42.654;23.296;2024-03-17T04:58:26;18.60;;;16.10;;
6023;SDS011;3040;42.654;23.296;2024-03-17T05:00:53;21.33;;;17.50;;
6023;SDS011;3040;42.654;23.296;2024-03-17T05:03:20;26.57;;;17.57;;
6023;SDS011;3040;42.654;23.296;2024-03-17T05:05:47;20.43;;;16.70;;
6023;SDS011;3040;42.654;23.296;2024-03-17T05:08:14;20.53;;;17.37;;
6023;SDS011;3040;42.654;23.296;2024-03-17T05:10:41;25.27;;;16.60;;
6023;SDS011;3040;42.654;23.296;2024-03-17T05:13:09;21.07;;;16.27;;
6023;SDS011;3040;42.654;23.296;2024-03-17T05:15:36;31.17;;;17.97;;
6023;SDS011;3040;42.654;23.296;2024-03-17T05:18:03;29.20;;;17.93;;
6023;SDS011;3040;42.654;23.296;2024-03-17T05:20:31;29.93;;;17.17;;
6023;SDS011;3040;42.654;23.296;2024-03-17T05:22:57;32.23;;;18.93;;
6023;SDS011;3040;42.654;23.296;2024-03-17T05:25:24;30.40;;;20.77;;
6023;SDS011;3040;42.654;23.296;2024-03-17T05:27:51;25.20;;;18.90;;
6023;SDS011;3040;42.654;23.296;2024-03-17T05:30:19;30.17;;;19.77;;
6023;SDS011;3040;42.654;23.296;2024-03-17T05:32:46;23.27;;;19.13;;
6023;SDS011;3040;42.654;23.296;2024-03-17T05:35:12;26.97;;;19.43;;
6023;SDS011;3040;42.654;23.296;2024-03-17T05:37:39;34.07;;;18.93;;
6023;SDS011;3040;42.654;23.296;2024-03-17T05:40:07;23.73;;;16.87;;
6023;SDS011;3040;42.654;23.296;2024-03-17T05:42:37;32.67;;;18.23;;
6023;SDS011;3040;42.654;23.296;2024-03-17T05:45:04;29.63;;;18.93;;
6023;SDS011;3040;42.654;23.296;2024-03-17T05:47:37;20.73;;;17.03;;
6023;SDS011;3040;42.654;23.296;2024-03-17T05:50:04;21.70;;;17.80;;
6023;SDS011;3040;42.654;23.296;2024-03-17T05:52:31;24.60;;;17.33;;
6023;SDS011;3040;42.654;23.296;2024-03-17T05:54:58;23.57;;;18.83;;
6023;SDS011;3040;42.654;23.296;2024-03-17T05:57:24;24.37;;;18.10;;
6023;SDS011;3040;42.654;23.296;2024-03-17T05:59:53;33.80;;;19.50;;
6023;SDS011;3040;42.654;23.296;2024-03-17T06:02:20;24.40;;;18.77;;
6023;SDS011;3040;42.654;23.296;2024-03-17T06:04:48;25.03;;;19.50;;
6023;SDS011;3040;42.654;23.296;2024-03-17T06:07:15;22.90;;;19.17;;
6023;SDS011;3040;42.654;23.296;2024-03-17T06:09:42;26.20;;;20.57;;
6023;SDS011;3040;42.654;23.296;2024-03-17T06:12:12;22.43;;;19.20;;
6023;SDS011;3040;42.654;23.296;2024-03-17T06:14:39;22.47;;;19.00;;
6023;SDS011;3040;42.654;23.296;2024-03-17T06:17:05;21.40;;;19.00;;
6023;SDS011;3040;42.654;23.296;2024-03-17T06:19:33;27.40;;;20.63;;
6023;SDS011;3040;42.654;23.296;2024-03-17T06:22:01;23.27;;;18.17;;
6023;SDS011;3040;42.654;23.296;2024-03-17T06:24:30;28.97;;;18.70;;
6023;SDS011;3040;42.654;23.296;2024-03-17T06:26:57;28.07;;;20.33;;
6023;SDS011;3040;42.654;23.296;2024-03-17T06:29:24;25.67;;;20.27;;
6023;SDS011;3040;42.654;23.296;2024-03-17T06:31:50;28.90;;;20.50;;
6023;SDS011;3040;42.654;23.296;2024-03-17T06:34:17;24.13;;;19.30;;
6023;SDS011;3040;42.654;23.296;2024-03-17T06:36:44;26.20;;;20.43;;
6023;SDS011;3040;42.654;23.296;2024-03-17T06:39:13;21.97;;;18.47;;
6023;SDS011;3040;42.654;23.296;2024-03-17T06:41:41;23.40;;;18.67;;
6023;SDS011;3040;42.654;23.296;2024-03-17T06:44:08;21.53;;;17.70;;
6023;SDS011;3040;42.654;23.296;2024-03-17T06:46:34;17.93;;;16.07;;
6023;SDS011;3040;42.654;23.296;2024-03-17T06:49:01;16.80;;;15.10;;
6023;SDS011;3040;42.654;23.296;2024-03-17T06:51:28;16.60;;;14.93;;
6023;SDS011;3040;42.654;23.296;2024-03-17T06:53:54;22.60;;;16.17;;
6023;SDS011;3040;42.654;23.296;2024-03-17T06:56:23;16.87;;;14.90;;
6023;SDS011;3040;42.654;23.296;2024-03-17T06:58:50;14.70;;;13.30;;
6023;SDS011;3040;42.654;23.296;2024-03-17T07:01:17;16.47;;;14.50;;
6023;SDS011;3040;42.654;23.296;2024-03-17T07:03:44;16.47;;;14.83;;
6023;SDS011;3040;42.654;23.296;2024-03-17T07:06:11;21.47;;;14.17;;
6023;SDS011;3040;42.654;23.296;2024-03-17T07:08:38;17.23;;;14.23;;
6023;SDS011;3040;42.654;23.296;2024-03-17T07:11:05;15.40;;;13.83;;
6023;SDS011;3040;42.654;23.296;2024-03-17T07:13:34;17.20;;;13.67;;
6023;SDS011;3040;42.654;23.296;2024-03-17T07:16:03;14.90;;;13.43;;
6023;SDS011;3040;42.654;23.296;2024-03-17T07:18:32;15.37;;;13.50;;
6023;SDS011;3040;42.654;23.296;2024-03-17T07:21:00;14.57;;;13.27;;
6023;SDS011;3040;42.654;23.296;2024-03-17T07:23:27;17.83;;;14.80;;
6023;SDS011;3040;42.654;23.296;2024-03-17T07:25:54;19.00;;;15.07;;
6023;SDS011;3040;42.654;23.296;2024-03-17T07:28:23;17.43;;;14.30;;
6023;SDS011;3040;42.654;23.296;2024-03-17T07:31:43;15.33;;;13.93;;
6023;SDS011;3040;42.654;23.296;2024-03-17T07:34:10;17.73;;;14.37;;
6023;SDS011;3040;42.654;23.296;2024-03-17T07:36:37;18.33;;;14.97;;
6023;SDS011;3040;42.654;23.296;2024-03-17T07:39:04;18.37;;;14.47;;
6023;SDS011;3040;42.654;23.296;2024-03-17T07:41:32;16.07;;;14.43;;
6023;SDS011;3040;42.654;23.296;2024-03-17T07:43:59;17.17;;;15.37;;
6023;SDS011;3040;42.654;23.296;2024-03-17T07:46:26;21.80;;;16.70;;
6023;SDS011;3040;42.654;23.296;2024-03-17T07:48:54;23.60;;;16.40;;
6023;SDS011;3040;42.654;23.296;2024-03-17T07:51:21;17.03;;;15.30;;
6023;SDS011;3040;42.654;23.296;2024-03-17T07:53:48;20.73;;;16.70;;
6023;SDS011;3040;42.654;23.296;2024-03-17T07:56:16;19.40;;;17.27;;
6023;SDS011;3040;42.654;23.296;2024-03-17T07:58:44;19.20;;;16.87;;
6023;SDS011;3040;42.654;23.296;2024-03-17T08:01:13;21.70;;;18.10;;
6023;SDS011;3040;42.654;23.296;2024-03-17T08:03:41;26.03;;;17.70;;
6023;SDS011;3040;42.654;23.296;2024-03-17T08:06:11;28.37;;;17.73;;
6023;SDS011;3040;42.654;23.296;2024-03-17T08:08:38;23.10;;;18.47;;
6023;SDS011;3040;42.654;23.296;2024-03-17T08:11:05;28.10;;;18.57;;
6023;SDS011;3040;42.654;23.296;2024-03-17T08:13:32;19.77;;;17.67;;
6023;SDS011;3040;42.654;23.296;2024-03-17T08:16:00;22.27;;;18.23;;
6023;SDS011;3040;42.654;23.296;2024-03-17T08:18:28;19.87;;;17.77;;
6023;SDS011;3040;42.654;23.296;2024-03-17T08:20:55;20.33;;;17.23;;
6023;SDS011;3040;42.654;23.296;2024-03-17T08:23:23;14.57;;;12.10;;
6023;SDS011;3040;42.654;23.296;2024-03-17T08:25:53;25.97;;;17.77;;
6023;SDS011;3040;42.654;23.296;2024-03-17T08:28:21;27.47;;;18.03;;
6023;SDS011;3040;42.654;23.296;2024-03-17T08:30:51;20.17;;;16.93;;
6023;SDS011;3040;42.654;23.296;2024-03-17T08:33:19;16.67;;;14.80;;
6023;SDS011;3040;42.654;23.296;2024-03-17T08:35:52;25.13;;;18.97;;
6023;SDS011;3040;42.654;23.296;2024-03-17T08:38:19;19.33;;;17.33;;
6023;SDS011;3040;42.654;23.296;2024-03-17T08:40:49;22.00;;;16.87;;
6023;SDS011;3040;42.654;23.296;2024-03-17T08:43:16;19.37;;;16.50;;
6023;SDS011;3040;42.654;23.296;2024-03-17T08:45:43;25.90;;;16.27;;
6023;SDS011;3040;42.654;23.296;2024-03-17T08:48:10;19.50;;;15.27;;
6023;SDS011;3040;42.654;23.296;2024-03-17T08:50:37;25.07;;;17.57;;
6023;SDS011;3040;42.654;23.296;2024-03-17T08:53:05;26.83;;;19.20;;
6023;SDS011;3040;42.654;23.296;2024-03-17T08:55:32;23.47;;;18.23;;
6023;SDS011;3040;42.654;23.296;2024-03-17T08:58:00;21.07;;;17.83;;
6023;SDS011;3040;42.654;23.296;2024-03-17T09:00:27;21.23;;;18.97;;
6023;SDS011;3040;42.654;23.296;2024-03-17T09:02:55;28.43;;;19.83;;
6023;SDS011;3040;42.654;23.296;2024-03-17T09:05:22;21.73;;;19.43;;
6023;SDS011;3040;42.654;23.296;2024-03-17T09:07:49;26.73;;;19.97;;
6023;SDS011;3040;42.654;23.296;2024-03-17T09:10:15;23.37;;;19.33;;
6023;SDS011;3040;42.654;23.296;2024-03-17T09:12:42;22.80;;;18.70;;
6023;SDS011;3040;42.654;23.296;2024-03-17T09:15:10;22.73;;;18.70;;
6023;SDS011;3040;42.654;23.296;2024-03-17T09:17:38;22.37;;;16.97;;
6023;SDS011;3040;42.654;23.296;2024-03-17T09:20:05;16.53;;;14.57;;
6023;SDS011;3040;42.654;23.296;2024-03-17T09:22:36;13.47;;;12.03;;
6023;SDS011;3040;42.654;23.296;2024-03-17T09:25:04;15.13;;;13.77;;
6023;SDS011;3040;42.654;23.296;2024-03-17T09:27:32;14.17;;;12.83;;
6023;SDS011;3040;42.654;23.296;2024-03-17T09:29:59;14.90;;;12.17;;
6023;SDS011;3040;42.654;23.296;2024-03-17T09:32:27;11.80;;;10.90;;
6023;SDS011;3040;42.654;23.296;2024-03-17T09:34:53;11.33;;;10.43;;
6023;SDS011;3040;42.654;23.296;2024-03-17T09:37:20;10.63;;;9.83;;
6023;SDS011;3040;42.654;23.296;2024-03-17T09:39:46;18.50;;;11.87;;
6023;SDS011;3040;42.654;23.296;2024-03-17T09:42:15;12.73;;;11.53;;
6023;SDS011;3040;42.654;23.296;2024-03-17T09:44:44;12.70;;;11.77;;
6023;SDS011;3040;42.654;23.296;2024-03-17T09:47:15;11.37;;;10.50;;
6023;SDS011;3040;42.654;23.296;2024-03-17T09:49:46;9.70;;;9.10;;
6023;SDS011;3040;42.654;23.296;2024-03-17T09:52:17;10.73;;;8.23;;
6023;SDS011;3040;42.654;23.296;2024-03-17T09:54:46;8.90;;;8.30;;
6023;SDS011;3040;42.654;23.296;2024-03-17T09:57:14;7.47;;;6.97;;
6023;SDS011;3040;42.654;23.296;2024-03-17T09:59:44;6.43;;;6.03;;
6023;SDS011;3040;42.654;23.296;2024-03-17T10:02:17;7.70;;;7.10;;
6023;SDS011;3040;42.654;23.296;2024-03-17T10:04:44;6.00;;;5.60;;
6023;SDS011;3040;42.654;23.296;2024-03-17T10:07:12;5.57;;;5.23;;
6023;SDS011;3040;42.654;23.296;2024-03-17T10:09:39;5.00;;;4.70;;
6023;SDS011;3040;42.654;23.296;2024-03-17T10:12:12;5.20;;;4.80;;
6023;SDS011;3040;42.654;23.296;2024-03-17T10:14:58;6.13;;;5.63;;
6023;SDS011;3040;42.654;23.296;2024-03-17T10:17:31;6.30;;;5.70;;
6023;SDS011;3040;42.654;23.296;2024-03-17T10:20:14;5.53;;;5.03;;
6023;SDS011;3040;42.654;23.296;2024-03-17T10:23:03;5.40;;;5.10;;
6023;SDS011;3040;42.654;23.296;2024-03-17T10:25:31;4.70;;;4.50;;
6023;SDS011;3040;42.654;23.296;2024-03-17T10:27:59;4.87;;;4.60;;
6023;SDS011;3040;42.654;23.296;2024-03-17T10:30:27;5.27;;;4.97;;
6023;SDS011;3040;42.654;23.296;2024-03-17T10:32:56;5.30;;;5.00;;
6023;SDS011;3040;42.654;23.296;2024-03-17T10:35:27;4.97;;;4.57;;
6023;SDS011;3040;42.654;23.296;2024-03-17T10:37:56;5.10;;;4.70;;
6023;SDS011;3040;42.654;23.296;2024-03-17T10:40:25;5.00;;;4.13;;
6023;SDS011;3040;42.654;23.296;2024-03-17T10:42:54;5.10;;;4.60;;
6023;SDS011;3040;42.654;23.296;2024-03-17T10:45:22;8.57;;;3.90;;
6023;SDS011;3040;42.654;23.296;2024-03-17T10:47:50;4.17;;;3.97;;
6023;SDS011;3040;42.654;23.296;2024-03-17T10:50:18;4.00;;;3.60;;
6023;SDS011;3040;42.654;23.296;2024-03-17T10:52:47;4.40;;;3.37;;
6023;SDS011;3040;42.654;23.296;2024-03-17T10:55:20;3.40;;;3.17;;
6023;SDS011;3040;42.654;23.296;2024-03-17T10:57:50;3.70;;;3.50;;
6023;SDS011;3040;42.654;23.296;2024-03-17T11:00:18;3.80;;;3.60;;
6023;SDS011;3040;42.654;23.296;2024-03-17T11:02:47;3.77;;;3.37;;
6023;SDS011;3040;42.654;23.296;2024-03-17T11:05:16;3.60;;;3.43;;
6023;SDS011;3040;42.654;23.296;2024-03-17T11:07:46;4.87;;;4.33;;
6023;SDS011;3040;42.654;23.296;2024-03-17T11:10:15;4.73;;;4.33;;
6023;SDS011;3040;42.654;23.296;2024-03-17T11:12:45;4.70;;;4.30;;
6023;SDS011;3040;42.654;23.296;2024-03-17T11:20:59;5.50;;;5.10;;
6023;SDS011;3040;42.654;23.296;2024-03-17T11:23:33;5.03;;;4.83;;
6023;SDS011;3040;42.654;23.296;2024-03-17T11:26:02;4.67;;;4.47;;
6023;SDS011;3040;42.654;23.296;2024-03-17T11:28:48;4.40;;;4.13;;
6023;SDS011;3040;42.654;23.296;2024-03-17T11:31:34;4.67;;;4.37;;
6023;SDS011;3040;42.654;23.296;2024-03-17T11:34:03;4.50;;;4.20;;
6023;SDS011;3040;42.654;23.296;2024-03-17T11:36:33;4.70;;;4.50;;
6023;SDS011;3040;42.654;23.296;2024-03-17T11:39:02;3.83;;;3.53;;
6023;SDS011;3040;42.654;23.296;2024-03-17T11:41:33;4.10;;;3.90;;
6023;SDS011;3040;42.654;23.296;2024-03-17T11:44:12;4.13;;;3.93;;
6023;SDS011;3040;42.654;23.296;2024-03-17T11:46:51;3.60;;;3.50;;
6023;SDS011;3040;42.654;23.296;2024-03-17T11:49:20;4.40;;;4.03;;
6023;SDS011;3040;42.654;23.296;2024-03-17T11:51:47;3.70;;;3.50;;
6023;SDS011;3040;42.654;23.296;2024-03-17T11:54:14;3.80;;;3.60;;
6023;SDS011;3040;42.654;23.296;2024-03-17T11:56:45;4.13;;;3.77;;
6023;SDS011;3040;42.654;23.296;2024-03-17T11:59:13;3.53;;;3.33;;
6023;SDS011;3040;42.654;23.296;2024-03-17T12:01:42;5.67;;;3.70;;
6023;SDS011;3040;42.654;23.296;2024-03-17T12:04:10;3.87;;;3.50;;
6023;SDS011;3040;42.654;23.296;2024-03-17T12:06:39;4.20;;;4.00;;
6023;SDS011;3040;42.654;23.296;2024-03-17T12:09:20;5.00;;;4.70;;
6023;SDS011;3040;42.654;23.296;2024-03-17T12:11:47;4.10;;;3.90;;
6023;SDS011;3040;42.654;23.296;2024-03-17T12:14:17;4.60;;;4.23;;
6023;SDS011;3040;42.654;23.296;2024-03-17T12:16:48;5.13;;;4.00;;
6023;SDS011;3040;42.654;23.296;2024-03-17T12:19:20;4.30;;;4.07;;
6023;SDS011;3040;42.654;23.296;2024-03-17T12:21:47;4.73;;;3.97;;
6023;SDS011;3040;42.654;23.296;2024-03-17T12:24:16;3.80;;;3.60;;
6023;SDS011;3040;42.654;23.296;2024-03-17T12:26:43;3.80;;;3.60;;
6023;SDS011;3040;42.654;23.296;2024-03-17T12:29:24;5.13;;;3.80;;
6023;SDS011;3040;42.654;23.296;2024-03-17T12:31:53;9.27;;;3.87;;
6023;SDS011;3040;42.654;23.296;2024-03-17T12:34:23;4.63;;;4.13;;
6023;SDS011;3040;42.654;23.296;2024-03-17T12:36:51;4.60;;;4.30;;
6023;SDS011;3040;42.654;23.296;2024-03-17T12:39:19;4.47;;;4.17;;
6023;SDS011;3040;42.654;23.296;2024-03-17T12:42:00;5.03;;;4.77;;
6023;SDS011;3040;42.654;23.296;2024-03-17T12:44:28;5.20;;;4.80;;
6023;SDS011;3040;42.654;23.296;2024-03-17T12:46:55;4.70;;;4.50;;
6023;SDS011;3040;42.654;23.296;2024-03-17T12:49:23;4.60;;;4.30;;
6023;SDS011;3040;42.654;23.296;2024-03-17T12:51:50;6.07;;;4.43;;
6023;SDS011;3040;42.654;23.296;2024-03-17T12:54:19;5.10;;;4.77;;
6023;SDS011;3040;42.654;23.296;2024-03-17T12:56:46;5.13;;;4.83;;
6023;SDS011;3040;42.654;23.296;2024-03-17T12:59:37;5.17;;;4.77;;
6023;SDS011;3040;42.654;23.296;2024-03-17T13:02:21;5.10;;;4.70;;
6023;SDS011;3040;42.654;23.296;2024-03-17T13:07:44;7.87;;;5.30;;
6023;SDS011;3040;42.654;23.296;2024-03-17T13:10:12;4.60;;;4.30;;
6023;SDS011;3040;42.654;23.296;2024-03-17T13:12:39;7.80;;;4.87;;
6023;SDS011;3040;42.654;23.296;2024-03-17T13:15:07;9.63;;;6.37;;
6023;SDS011;3040;42.654;23.296;2024-03-17T13:17:36;5.37;;;5.17;;
6023;SDS011;3040;42.654;23.296;2024-03-17T13:20:03;5.57;;;5.37;;
6023;SDS011;3040;42.654;23.296;2024-03-17T13:22:35;5.67;;;5.40;;
6023;SDS011;3040;42.654;23.296;2024-03-17T13:25:04;7.37;;;4.77;;
6023;SDS011;3040;42.654;23.296;2024-03-17T13:27:30;5.30;;;5.00;;
6023;SDS011;3040;42.654;23.296;2024-03-17T13:29:57;6.70;;;6.07;;
6023;SDS011;3040;42.654;23.296;2024-03-17T13:32:24;6.00;;;5.70;;
6023;SDS011;3040;42.654;23.296;2024-03-17T13:34:51;6.63;;;6.23;;
6023;SDS011;3040;42.654;23.296;2024-03-17T13:37:17;6.50;;;6.00;;
6023;SDS011;3040;42.654;23.296;2024-03-17T13:39:46;6.67;;;6.37;;
6023;SDS011;3040;42.654;23.296;2024-03-17T13:42:12;6.80;;;6.20;;
6023;SDS011;3040;42.654;23.296;2024-03-17T13:44:39;6.77;;;6.37;;
6023;SDS011;3040;42.654;23.296;2024-03-17T13:47:06;6.43;;;6.13;;
6023;SDS011;3040;42.654;23.296;2024-03-17T13:49:33;6.37;;;5.77;;
6023;SDS011;3040;42.654;23.296;2024-03-17T13:52:01;6.83;;;6.30;;
6023;SDS011;3040;42.654;23.296;2024-03-17T13:54:29;7.20;;;6.90;;
6023;SDS011;3040;42.654;23.296;2024-03-17T13:56:58;7.07;;;6.43;;
6023;SDS011;3040;42.654;23.296;2024-03-17T13:59:27;6.73;;;6.43;;
6023;SDS011;3040;42.654;23.296;2024-03-17T14:01:54;7.37;;;7.00;;
6023;SDS011;3040;42.654;23.296;2024-03-17T14:04:21;6.77;;;6.47;;
6023;SDS011;3040;42.654;23.296;2024-03-17T14:06:48;7.53;;;7.17;;
6023;SDS011;3040;42.654;23.296;2024-03-17T14:09:15;7.93;;;7.57;;
6023;SDS011;3040;42.654;23.296;2024-03-17T14:11:44;8.27;;;7.87;;
6023;SDS011;3040;42.654;23.296;2024-03-17T14:14:12;7.57;;;7.23;;
6023;SDS011;3040;42.654;23.296;2024-03-17T14:16:39;7.77;;;7.27;;
6023;SDS011;3040;42.654;23.296;2024-03-17T14:19:07;7.37;;;6.97;;
6023;SDS011;3040;42.654;23.296;2024-03-17T14:21:34;7.33;;;6.70;;
6023;SDS011;3040;42.654;23.296;2024-03-17T14:24:01;7.30;;;6.87;;
6023;SDS011;3040;42.654;23.296;2024-03-17T14:26:32;7.47;;;6.87;;
6023;SDS011;3040;42.654;23.296;2024-03-17T14:29:00;7.87;;;7.30;;
6023;SDS011;3040;42.654;23.296;2024-03-17T14:31:31;8.23;;;7.63;;
6023;SDS011;3040;42.654;23.296;2024-03-17T14:33:59;8.03;;;7.43;;
6023;SDS011;3040;42.654;23.296;2024-03-17T14:36:26;7.70;;;7.27;;
6023;SDS011;3040;42.654;23.296;2024-03-17T14:38:54;7.90;;;7.40;;
6023;SDS011;3040;42.654;23.296;2024-03-17T14:41:21;7.07;;;6.50;;
6023;SDS011;3040;42.654;23.296;2024-03-17T14:43:48;7.47;;;7.17;;
6023;SDS011;3040;42.654;23.296;2024-03-17T14:46:15;7.70;;;7.23;;
6023;SDS011;3040;42.654;23.296;2024-03-17T14:48:43;7.53;;;6.97;;
6023;SDS011;3040;42.654;23.296;2024-03-17T14:51:11;7.53;;;7.13;;
6023;SDS011;3040;42.654;23.296;2024-03-17T14:53:38;8.37;;;7.87;;
6023;SDS011;3040;42.654;23.296;2024-03-17T14:56:13;8.63;;;8.10;;
6023;SDS011;3040;42.654;23.296;2024-03-17T14:58:40;7.50;;;7.00;;